Time;durP1;ratioP1;P1;durP2;ratioP2;P2;SDS_P1;SDS_P2;PMS_P1;PMS_P2;Temp;Humidity;BMP_temperature;BMP_pressure;BME280_temperature;BME280_humidity;BME280_pressure;Samples;Min_cycle;Max_cycle;Signal;HPM_P1;HPM_P2
2022/02/10 00:05:34;;;;;;;12.55;6.25;;;5.80;62.40;;;;;;5072404;28;20035;-70
2022/02/10 00:15:42;;;;;;;11.18;6.32;;;5.70;62.30;;;;;;5073750;28;20036;-69
2022/02/10 00:18:45;;;;;;;;;;;5.70;62.30;;;;;;5076420;28;20052;-72
2022/02/10 00:21:18;;;;;;;11.23;5.88;;;5.70;62.10;;;;;;5075433;28;19947;-69
2022/02/10 00:36:58;;;;;;;16.08;7.30;;;5.50;62.90;;;;;;5096187;28;20075;-69
2022/02/10 00:39:57;;;;;;;15.00;7.05;;;5.50;62.80;;;;;;5096015;28;20051;-70
2022/02/10 00:42:11;;;;;;;16.33;7.32;;;5.40;62.80;;;;;;5089352;28;20034;-71
2022/02/10 00:44:38;;;;;;;12.48;6.60;;;5.40;63.10;;;;;;5075693;28;20108;-70
2022/02/10 00:47:04;;;;;;;9.88;6.10;;;5.40;62.80;;;;;;5057937;28;20028;-70
2022/02/10 00:49:30;;;;;;;15.73;6.90;;;5.40;62.80;;;;;;5057549;28;20028;-70
2022/02/10 00:51:56;;;;;;;14.10;7.03;;;5.40;62.90;;;;;;5057549;28;20132;-70
2022/02/10 00:54:25;;;;;;;13.93;6.55;;;5.30;63.00;;;;;;5076744;28;20028;-70
2022/02/10 00:56:55;;;;;;;13.30;6.55;;;5.30;63.00;;;;;;5095765;28;20115;-70
2022/02/10 00:59:36;;;;;;;11.70;6.43;;;5.30;63.00;;;;;;5096039;28;20368;-69
2022/02/10 01:13:21;;;;;;;15.38;7.38;;;5.20;63.10;;;;;;5086017;28;20040;-69
2022/02/10 01:29:42;;;;;;;9.05;5.70;;;5.10;63.00;;;;;;5074823;28;20483;-69
2022/02/10 01:32:09;;;;;;;12.38;6.72;;;5.10;63.00;;;;;;5075131;28;20039;-68
2022/02/10 01:34:41;;;;;;;11.07;6.32;;;5.00;63.00;;;;;;5060649;28;20055;-69
2022/02/10 01:37:07;;;;;;;14.50;7.00;;;5.00;63.10;;;;;;5095180;28;20028;-69
2022/02/10 01:39:40;;;;;;;10.98;6.38;;;5.00;63.20;;;;;;5095002;28;20471;-69
2022/02/10 02:04:23;;;;;;;18.27;7.25;;;4.80;63.30;;;;;;5074361;28;20030;-69
2022/02/10 02:06:51;;;;;;;14.50;7.13;;;4.80;63.20;;;;;;5074170;28;20029;-69
2022/02/10 02:09:19;;;;;;;15.70;6.93;;;4.80;63.30;;;;;;5056074;28;20033;-72
2022/02/10 02:11:52;;;;;;;11.13;6.63;;;4.80;63.40;;;;;;5062135;28;20040;-71
2022/02/10 02:14:22;;;;;;;12.98;6.60;;;4.70;63.50;;;;;;5049767;28;20029;-70
2022/02/10 02:17:02;;;;;;;14.10;6.80;;;4.70;63.50;;;;;;5052624;28;20036;-71
2022/02/10 02:19:29;;;;;;;16.45;6.93;;;4.70;63.60;;;;;;5072289;28;20081;-71
2022/02/10 02:22:04;;;;;;;12.68;6.65;;;4.70;63.60;;;;;;5073745;28;20504;-70
2022/02/10 02:24:31;;;;;;;15.23;6.40;;;4.70;63.80;;;;;;5074054;28;20032;-70
2022/02/10 02:27:00;;;;;;;11.55;6.88;;;4.70;63.70;;;;;;5073960;28;20035;-69
2022/02/10 02:29:34;;;;;;;12.18;5.60;;;4.70;63.80;;;;;;5073862;28;20115;-69
2022/02/10 02:32:06;;;;;;;10.77;5.88;;;4.70;63.70;;;;;;5074103;28;20507;-70
2022/02/10 02:35:42;;;;;;;10.25;5.15;;;4.70;63.60;;;;;;5073363;28;20088;-69
2022/02/10 02:37:55;;;;;;;;;;;4.70;63.60;;;;;;5055170;28;20044;-69
2022/02/10 03:10:26;;;;;;;13.25;6.55;;;4.50;64.00;;;;;;5073298;28;20043;-70
2022/02/10 03:12:38;;;;;;;13.38;7.22;;;4.50;64.00;;;;;;5072809;28;20032;-70
2022/02/10 03:15:10;;;;;;;12.40;7.35;;;4.50;63.90;;;;;;5073420;28;20029;-69
2022/02/10 03:17:56;;;;;;;11.98;6.43;;;4.50;64.00;;;;;;5073432;28;20450;-70
2022/02/10 04:30:54;;;;;;;18.98;9.05;;;4.30;64.60;;;;;;5076066;28;20070;-70
2022/02/10 04:55:50;;;;;;;25.15;10.15;;;4.30;64.70;;;;;;5024405;28;20112;-69
2022/02/10 05:06:52;;;;;;;26.15;12.77;;;4.30;64.90;;;;;;5075343;28;20078;-69
2022/02/10 05:17:15;;;;;;;26.08;13.10;;;4.20;65.00;;;;;;5075041;28;20028;-70
2022/02/10 05:20:02;;;;;;;33.72;17.38;;;4.20;65.00;;;;;;5075205;28;20025;-69
2022/02/10 05:37:53;;;;;;;31.73;15.77;;;4.20;65.30;;;;;;5075027;28;20111;-70
2022/02/10 05:40:58;;;;;;;28.52;14.27;;;4.20;65.50;;;;;;5056914;28;20119;-69
2022/02/10 05:43:28;;;;;;;26.15;13.63;;;4.20;65.60;;;;;;5073847;28;20384;-69
2022/02/10 05:46:10;;;;;;;25.27;14.40;;;4.20;65.50;;;;;;5074190;28;20021;-69
2022/02/10 05:51:53;;;;;;;;;;;4.20;65.30;;;;;;5075192;28;20035;-69
2022/02/10 06:39:30;;;;;;;;;;;4.50;66.30;;;;;;5074022;28;20074;-69
2022/02/10 06:49:32;;;;;;;34.70;16.00;;;4.70;66.50;;;;;;5073674;28;20007;-69
2022/02/10 07:48:24;;;;;;;60.65;20.02;;;6.20;65.20;;;;;;5072946;28;20052;-70
2022/02/10 07:56:54;;;;;;;48.70;21.55;;;6.30;65.20;;;;;;4972634;28;20495;-70
2022/02/10 07:59:46;;;;;;;73.90;24.33;;;6.40;65.30;;;;;;4991318;28;20037;-69
2022/02/10 08:56:30;;;;;;;46.30;21.80;;;7.80;63.20;;;;;;5092425;28;19908;-71
2022/02/10 09:07:24;;;;;;;49.00;21.67;;;8.00;62.50;;;;;;5003459;28;20470;-72
2022/02/10 09:10:14;;;;;;;52.80;23.65;;;8.10;62.40;;;;;;5075009;28;20020;-71
2022/02/10 09:15:54;;;;;;;41.72;20.58;;;8.30;61.80;;;;;;5044087;28;20037;-70
2022/02/10 09:54:14;;;;;;;40.30;19.02;;;9.20;59.30;;;;;;5094921;28;20071;-69
2022/02/10 09:55:58;;;;;;;43.00;21.75;;;9.30;59.30;;;;;;5094430;28;20468;-69
2022/02/10 09:58:42;;;;;;;42.63;19.67;;;9.40;59.20;;;;;;5094809;28;20055;-78
2022/02/10 10:01:45;;;;;;;52.45;20.58;;;9.40;59.00;;;;;;5080236;28;20038;-69
2022/02/10 10:04:13;;;;;;;39.83;19.00;;;9.50;59.10;;;;;;5073925;28;20063;-69
2022/02/10 10:09:24;;;;;;;45.17;21.17;;;9.70;59.40;;;;;;5074370;28;20435;-69
2022/02/10 10:15:04;;;;;;;48.47;23.23;;;9.90;59.00;;;;;;5094512;28;20043;-69
2022/02/10 10:17:53;;;;;;;41.83;21.25;;;10.00;58.60;;;;;;5093608;28;20047;-69
2022/02/10 10:20:28;;;;;;;43.92;21.55;;;10.10;58.30;;;;;;5093919;28;20052;-69
2022/02/10 10:49:11;;;;;;;;;;;9.90;57.70;;;;;;5092260;28;20090;-69
2022/02/10 10:51:20;;;;;;;42.05;20.75;;;9.90;58.20;;;;;;5093385;28;19912;-69
2022/02/10 10:53:55;;;;;;;41.05;19.88;;;9.80;58.10;;;;;;5088910;28;20077;-69
2022/02/10 10:56:30;;;;;;;49.55;24.58;;;9.70;58.30;;;;;;5091668;28;20023;-69
2022/02/10 11:00:07;;;;;;;48.35;23.35;;;9.60;58.40;;;;;;5060952;28;20029;-69
2022/02/10 11:22:10;;;;;;;34.08;18.20;;;9.40;59.10;;;;;;5073466;28;20029;-70
2022/02/10 11:39:16;;;;;;;26.38;15.13;;;9.40;59.40;;;;;;5073168;28;20495;-69
2022/02/10 12:29:23;;;;;;;24.85;13.15;;;9.60;58.70;;;;;;5072859;28;20036;-69
2022/02/10 14:15:30;;;;;;;10.13;3.80;;;12.10;52.30;;;;;;5074396;28;20031;-70
2022/02/10 14:18:20;;;;;;;5.65;3.72;;;12.20;51.60;;;;;;5072987;28;20476;-70
2022/02/10 14:28:17;;;;;;;9.50;4.45;;;12.50;51.30;;;;;;5073949;28;20074;-70
2022/02/10 14:30:43;;;;;;;7.78;4.28;;;12.60;51.30;;;;;;5073498;28;20063;-70
2022/02/10 14:33:09;;;;;;;20.67;4.20;;;12.60;51.40;;;;;;5073428;28;20477;-70
2022/02/10 14:35:49;;;;;;;9.65;3.53;;;12.70;51.20;;;;;;5072435;28;20379;-70
2022/02/10 14:38:33;;;;;;;7.68;3.85;;;12.70;51.10;;;;;;5072559;28;20028;-69
2022/02/10 14:41:32;;;;;;;7.47;3.70;;;12.80;50.70;;;;;;5073355;28;20029;-70
2022/02/10 15:56:42;;;;;;;10.77;5.30;;;12.10;52.30;;;;;;5076557;28;20108;-70
2022/02/10 16:18:21;;;;;;;18.65;7.75;;;12.10;52.80;;;;;;5076485;28;20031;-70
2022/02/10 16:20:56;;;;;;;21.25;8.00;;;12.00;52.60;;;;;;5076438;28;20070;-70
2022/02/10 16:23:24;;;;;;;48.40;15.52;;;12.00;52.60;;;;;;5076511;28;20056;-69
2022/02/10 16:26:07;;;;;;;44.88;15.02;;;11.90;52.70;;;;;;5058234;28;20024;-69
2022/02/10 16:28:35;;;;;;;22.55;11.50;;;11.90;52.90;;;;;;5058398;28;20028;-69
2022/02/10 16:31:02;;;;;;;15.90;8.20;;;11.80;53.00;;;;;;5069265;28;20040;-70
2022/02/10 16:33:33;;;;;;;18.45;6.90;;;11.70;53.10;;;;;;5074376;28;20072;-70
2022/02/10 16:36:00;;;;;;;17.75;5.88;;;11.60;53.10;;;;;;5076093;28;20028;-69
2022/02/10 16:38:29;;;;;;;12.30;5.78;;;11.60;53.20;;;;;;5076098;28;20048;-70
2022/02/10 16:40:55;;;;;;;11.52;5.55;;;11.50;53.30;;;;;;5058074;28;20085;-70
2022/02/10 16:43:22;;;;;;;17.55;5.65;;;11.40;53.40;;;;;;5076029;28;20027;-70
2022/02/10 16:45:48;;;;;;;24.50;5.47;;;11.30;53.50;;;;;;5075985;28;20016;-69
2022/02/10 16:48:14;;;;;;;18.20;5.90;;;11.20;53.60;;;;;;5075574;28;20431;-69
2022/02/10 16:50:43;;;;;;;14.50;5.97;;;11.10;53.70;;;;;;5069638;28;20388;-70
2022/02/10 16:53:15;;;;;;;14.77;4.70;;;11.10;53.80;;;;;;5095794;28;20024;-70
2022/02/10 16:55:47;;;;;;;12.00;4.60;;;11.00;53.90;;;;;;5096145;28;20020;-70
2022/02/10 16:58:40;;;;;;;17.75;6.22;;;10.90;54.00;;;;;;5094669;28;20020;-69
2022/02/10 17:25:45;;;;;;;25.75;7.40;;;10.10;54.90;;;;;;5083778;28;20513;-70
2022/02/10 17:28:12;;;;;;;25.80;7.53;;;10.00;55.00;;;;;;5095569;28;20024;-70
2022/02/10 17:33:32;;;;;;;19.38;6.22;;;9.90;55.40;;;;;;5095199;28;20059;-70
2022/02/10 17:54:22;;;;;;;39.60;15.07;;;9.50;56.80;;;;;;5074694;28;20036;-70
2022/02/10 17:56:48;;;;;;;27.50;11.77;;;9.40;57.10;;;;;;5056672;28;20028;-69
2022/02/10 17:59:14;;;;;;;50.85;19.83;;;9.50;57.40;;;;;;5074293;28;20469;-69
2022/02/10 18:01:42;;;;;;;43.45;22.92;;;9.40;57.50;;;;;;5074532;28;20146;-70
2022/02/10 18:04:09;;;;;;;34.38;14.63;;;9.40;57.40;;;;;;5056525;28;20161;-70
2022/02/10 18:06:41;;;;;;;22.20;10.98;;;9.40;57.50;;;;;;5056233;28;20029;-70
2022/02/10 18:16:57;;;;;;;20.52;7.40;;;9.40;57.00;;;;;;5074384;28;20402;-70
2022/02/10 18:19:30;;;;;;;27.27;8.47;;;9.30;56.90;;;;;;5074275;28;20024;-69
2022/02/10 19:10:15;;;;;;;16.85;7.93;;;8.30;57.60;;;;;;5073102;28;20354;-70
2022/02/10 19:12:52;;;;;;;18.60;8.48;;;8.30;57.80;;;;;;5073502;28;20456;-70
2022/02/10 19:15:22;;;;;;;26.55;11.25;;;8.20;57.80;;;;;;5073436;28;20031;-70
2022/02/10 19:17:50;;;;;;;22.35;10.65;;;8.10;57.90;;;;;;5072122;28;20024;-70
2022/02/10 19:20:20;;;;;;;29.67;12.38;;;8.10;58.00;;;;;;5071312;28;20039;-69
2022/02/10 19:22:45;;;;;;;33.17;13.45;;;8.10;58.30;;;;;;5073288;28;20024;-70
2022/02/10 19:25:16;;;;;;;28.83;11.75;;;8.10;58.30;;;;;;5073282;28;20024;-70
2022/02/10 19:27:43;;;;;;;23.05;12.20;;;8.00;58.40;;;;;;5072060;28;20093;-69
2022/02/10 19:30:12;;;;;;;17.90;9.82;;;8.00;58.50;;;;;;5071861;28;20070;-70
2022/02/10 19:32:42;;;;;;;22.67;9.70;;;7.90;58.50;;;;;;5073093;28;20089;-70
2022/02/10 19:35:09;;;;;;;21.77;9.98;;;7.90;58.50;;;;;;5093001;28;20048;-70
2022/02/10 19:37:34;;;;;;;17.95;9.65;;;7.90;58.50;;;;;;5093075;28;20029;-70
2022/02/10 19:40:03;;;;;;;24.13;10.18;;;7.90;58.60;;;;;;5075010;28;20028;-70
2022/02/10 19:42:34;;;;;;;23.63;10.70;;;7.80;58.70;;;;;;5075109;28;20020;-70
2022/02/10 19:45:01;;;;;;;17.35;8.75;;;7.80;59.00;;;;;;5093396;28;20460;-70
2022/02/10 19:47:32;;;;;;;15.80;8.25;;;7.80;59.10;;;;;;5093286;28;20353;-70
2022/02/10 19:49:58;;;;;;;17.23;7.88;;;7.70;59.10;;;;;;5093075;28;20024;-70
2022/02/10 19:52:25;;;;;;;12.95;7.70;;;7.70;59.10;;;;;;5075081;28;20450;-70
2022/02/10 19:54:55;;;;;;;17.77;10.13;;;7.70;59.10;;;;;;5075351;28;20064;-69
2022/02/10 19:57:23;;;;;;;23.55;12.23;;;7.70;59.10;;;;;;5074849;28;20467;-71
2022/02/10 19:59:50;;;;;;;20.80;11.35;;;7.60;59.10;;;;;;5093258;28;20374;-70
2022/02/10 20:02:20;;;;;;;23.70;10.55;;;7.60;59.30;;;;;;5093112;28;20066;-70
2022/02/10 20:04:46;;;;;;;20.85;10.98;;;7.60;59.30;;;;;;5074979;28;20028;-69
2022/02/10 20:07:12;;;;;;;17.88;9.48;;;7.50;59.40;;;;;;5093333;28;20032;-69
2022/02/10 20:09:38;;;;;;;14.85;9.40;;;7.50;59.40;;;;;;5074864;28;20107;-70
2022/02/10 20:12:04;;;;;;;23.60;10.73;;;7.50;59.30;;;;;;5092939;28;20032;-70
2022/02/10 20:14:30;;;;;;;20.05;10.07;;;7.50;59.40;;;;;;5093323;28;20029;-70
2022/02/10 20:16:57;;;;;;;19.08;9.25;;;7.40;59.40;;;;;;5093008;28;20031;-71
2022/02/10 20:19:25;;;;;;;17.75;9.18;;;7.40;59.50;;;;;;5074831;28;20056;-70
2022/02/10 20:21:51;;;;;;;18.75;9.65;;;7.40;59.60;;;;;;5075185;28;20479;-70
2022/02/10 20:24:17;;;;;;;21.17;10.80;;;7.30;59.60;;;;;;5092959;28;20028;-69
2022/02/10 20:26:43;;;;;;;19.02;10.38;;;7.30;59.80;;;;;;5092939;28;20089;-70
2022/02/10 20:29:11;;;;;;;14.95;9.48;;;7.30;59.90;;;;;;5092576;28;20173;-70
2022/02/10 20:31:39;;;;;;;16.65;8.70;;;7.30;60.00;;;;;;5075308;28;20036;-70
2022/02/10 20:34:07;;;;;;;14.50;8.75;;;7.20;59.90;;;;;;5077869;28;20051;-69
2022/02/10 20:36:35;;;;;;;17.17;9.95;;;7.20;59.90;;;;;;5078231;28;20024;-69
2022/02/10 20:39:02;;;;;;;16.55;8.98;;;7.20;59.90;;;;;;5096522;28;20016;-70
2022/02/10 20:41:32;;;;;;;17.90;8.48;;;7.10;60.00;;;;;;5096405;28;20103;-70
2022/02/10 20:44:00;;;;;;;13.63;7.28;;;7.20;60.20;;;;;;5078182;28;20020;-69
2022/02/10 20:46:28;;;;;;;19.40;9.02;;;7.10;60.30;;;;;;5096301;28;20016;-70
2022/02/10 20:48:54;;;;;;;11.32;7.32;;;7.10;60.30;;;;;;5096247;28;20024;-70
2022/02/10 20:51:20;;;;;;;11.88;7.15;;;7.10;60.20;;;;;;5095925;28;20120;-70
2022/02/10 20:53:48;;;;;;;15.68;7.38;;;7.10;60.20;;;;;;5078030;28;20460;-70
2022/02/10 20:56:18;;;;;;;12.93;7.53;;;7.10;60.20;;;;;;5077855;28;20602;-70
2022/02/10 20:58:50;;;;;;;21.17;9.20;;;7.00;60.20;;;;;;5078068;28;20039;-69
2022/02/10 21:01:16;;;;;;;54.53;27.08;;;7.00;60.40;;;;;;5095785;28;20149;-69
2022/02/10 21:03:43;;;;;;;56.05;24.33;;;7.00;60.60;;;;;;5077829;28;20028;-69
2022/02/10 21:11:11;;;;;;;130.18;44.10;;;7.00;60.90;;;;;;5095818;28;20056;-70
2022/02/10 21:13:39;;;;;;;80.88;30.10;;;7.00;60.90;;;;;;5077713;28;20430;-70
2022/02/10 21:16:05;;;;;;;57.95;23.20;;;7.00;60.90;;;;;;5096087;28;20042;-70
2022/02/10 21:18:31;;;;;;;36.70;15.73;;;7.00;61.00;;;;;;5077638;28;20463;-70
2022/02/10 21:21:04;;;;;;;20.63;10.23;;;7.00;61.00;;;;;;5077475;28;20077;-70
2022/02/10 21:23:43;;;;;;;25.90;12.32;;;7.10;61.30;;;;;;5077603;28;20509;-69
2022/02/10 21:26:11;;;;;;;29.55;13.55;;;7.10;61.40;;;;;;5077582;28;20097;-70
2022/02/10 21:28:40;;;;;;;24.55;10.10;;;7.20;61.60;;;;;;5077269;28;20020;-70
2022/02/10 21:31:07;;;;;;;15.20;8.25;;;7.20;61.90;;;;;;5077196;28;20380;-70
2022/02/10 21:38:53;;;;;;;15.88;8.35;;;7.50;62.70;;;;;;5095433;28;20124;-71
2022/02/10 21:54:54;;;;;;;;;;;8.00;61.90;;;;;;5095564;28;20035;-70
2022/02/10 21:57:33;;;;;;;17.52;10.38;;;8.10;61.50;;;;;;5094994;28;19911;-71
2022/02/10 22:00:31;;;;;;;19.35;8.93;;;8.20;61.30;;;;;;5076860;28;20036;-70
2022/02/10 22:11:32;;;;;;;16.30;8.35;;;8.50;60.80;;;;;;5012229;28;20037;-70
2022/02/10 22:19:15;;;;;;;15.20;7.80;;;8.60;60.80;;;;;;5094529;28;20055;-69
2022/02/10 22:21:53;;;;;;;10.13;6.53;;;8.70;60.70;;;;;;5076046;28;20085;-69
2022/02/10 22:24:21;;;;;;;13.90;6.97;;;8.70;60.60;;;;;;5076236;28;20057;-69
2022/02/10 22:26:50;;;;;;;14.25;7.55;;;8.80;60.50;;;;;;5094056;28;20455;-69
2022/02/10 22:29:26;;;;;;;11.02;6.55;;;8.80;60.40;;;;;;5059548;28;20036;-69
2022/02/10 22:36:46;;;;;;;21.55;11.63;;;8.90;60.10;;;;;;5093868;28;20391;-69
2022/02/10 22:39:13;;;;;;;15.32;8.82;;;9.00;60.00;;;;;;5075941;28;20368;-70
2022/02/10 22:41:39;;;;;;;17.08;8.13;;;9.00;59.80;;;;;;5093716;28;20025;-70
2022/02/10 22:44:06;;;;;;;15.27;8.50;;;9.00;59.50;;;;;;5075902;28;20062;-69
2022/02/10 22:46:33;;;;;;;11.93;6.90;;;9.10;59.20;;;;;;5075664;28;20081;-71
2022/02/10 22:49:00;;;;;;;13.98;8.27;;;9.10;59.10;;;;;;5075739;28;20459;-70
2022/02/10 22:51:28;;;;;;;14.82;7.20;;;9.10;58.80;;;;;;5075685;28;20036;-70
2022/02/10 22:53:54;;;;;;;16.08;7.95;;;9.10;58.60;;;;;;5093609;28;20528;-70
2022/02/10 22:56:23;;;;;;;14.13;7.00;;;9.10;58.50;;;;;;5074643;28;20081;-72
2022/02/10 22:58:53;;;;;;;16.58;7.10;;;9.20;58.50;;;;;;5075681;28;20024;-70
2022/02/10 23:01:19;;;;;;;13.05;6.30;;;9.20;58.50;;;;;;5075550;28;20056;-70
2022/02/10 23:03:44;;;;;;;12.57;6.85;;;9.20;58.50;;;;;;5075515;28;20109;-70
2022/02/10 23:06:13;;;;;;;15.35;7.57;;;9.30;58.40;;;;;;5075357;28;20024;-70
2022/02/10 23:08:39;;;;;;;10.90;6.43;;;9.30;58.40;;;;;;5075520;28;20020;-70
2022/02/10 23:11:06;;;;;;;13.25;6.70;;;9.30;58.30;;;;;;5075409;28;20035;-70
2022/02/10 23:13:33;;;;;;;17.70;6.70;;;9.30;58.80;;;;;;5093572;28;20380;-70
2022/02/10 23:16:03;;;;;;;17.15;7.38;;;9.40;58.20;;;;;;5093616;28;20024;-70
2022/02/10 23:18:33;;;;;;;15.20;6.75;;;9.40;58.00;;;;;;5093661;28;20039;-70
2022/02/10 23:21:01;;;;;;;13.93;6.90;;;9.40;58.00;;;;;;5075426;28;20028;-70
2022/02/10 23:23:29;;;;;;;10.77;6.57;;;9.40;58.00;;;;;;5093791;28;20418;-69
2022/02/10 23:25:56;;;;;;;22.80;11.60;;;9.50;58.00;;;;;;5093170;28;20475;-70
2022/02/10 23:28:50;;;;;;;15.27;8.57;;;9.40;57.80;;;;;;5075419;28;20024;-70
2022/02/10 23:31:18;;;;;;;11.57;6.75;;;9.50;57.80;;;;;;5089406;28;20055;-69
2022/02/10 23:33:51;;;;;;;11.98;6.32;;;9.50;57.80;;;;;;5093066;28;20088;-70
2022/02/10 23:36:59;;;;;;;12.57;6.30;;;9.60;57.70;;;;;;5075345;28;20491;-69
2022/02/10 23:39:38;;;;;;;12.10;6.90;;;9.60;57.70;;;;;;5084739;28;20036;-69
2022/02/10 23:42:13;;;;;;;10.55;5.90;;;9.60;57.70;;;;;;5091246;28;20036;-70
2022/02/10 23:44:43;;;;;;;12.68;6.40;;;9.70;57.70;;;;;;5075184;28;20031;-69
2022/02/10 23:47:15;;;;;;;10.10;6.07;;;9.70;57.70;;;;;;5075288;28;20051;-70
2022/02/10 23:49:41;;;;;;;13.73;7.20;;;9.70;57.60;;;;;;5093321;28;20028;-70
2022/02/10 23:52:09;;;;;;;11.35;6.88;;;9.80;57.70;;;;;;5075163;28;20379;-70
2022/02/10 23:54:38;;;;;;;20.50;6.47;;;9.80;57.50;;;;;;5075232;28;20086;-69
2022/02/10 23:57:11;;;;;;;12.82;6.82;;;9.80;57.50;;;;;;5075053;28;20493;-70
